sensor_id;sensor_type;location;lat;lon;timestamp;temperature;humidity
44851;DHT22;30583;48.714;9.386;2023-12-04T00:00:41;-3276.50;66.10
44851;DHT22;30583;48.714;9.386;2023-12-04T00:03:07;-3276.40;65.80
44851;DHT22;30583;48.714;9.386;2023-12-04T00:05:32;-3276.30;66.60
44851;DHT22;30583;48.714;9.386;2023-12-04T00:07:58;-3276.40;66.10
44851;DHT22;30583;48.714;9.386;2023-12-04T00:10:24;-3276.60;65.60
44851;DHT22;30583;48.714;9.386;2023-12-04T00:12:50;-3276.40;66.00
44851;DHT22;30583;48.714;9.386;2023-12-04T00:15:16;-3276.70;65.40
44851;DHT22;30583;48.714;9.386;2023-12-04T00:17:42;-3276.70;65.00
44851;DHT22;30583;48.714;9.386;2023-12-04T00:20:09;-3276.60;65.50
44851;DHT22;30583;48.714;9.386;2023-12-04T00:22:35;-3276.50;65.60
44851;DHT22;30583;48.714;9.386;2023-12-04T00:25:05;-3276.50;65.60
44851;DHT22;30583;48.714;9.386;2023-12-04T00:27:31;-3276.60;65.00
44851;DHT22;30583;48.714;9.386;2023-12-04T00:29:56;-3276.60;64.80
44851;DHT22;30583;48.714;9.386;2023-12-04T00:32:22;-3276.50;65.20
44851;DHT22;30583;48.714;9.386;2023-12-04T00:34:48;-3276.50;65.50
44851;DHT22;30583;48.714;9.386;2023-12-04T00:37:13;-3276.70;64.80
44851;DHT22;30583;48.714;9.386;2023-12-04T00:39:39;-3276.60;64.70
44851;DHT22;30583;48.714;9.386;2023-12-04T00:42:05;-3276.60;64.90
44851;DHT22;30583;48.714;9.386;2023-12-04T00:44:31;-3276.40;65.20
44851;DHT22;30583;48.714;9.386;2023-12-04T00:46:56;-3276.40;65.00
44851;DHT22;30583;48.714;9.386;2023-12-04T00:49:23;-3276.50;64.90
44851;DHT22;30583;48.714;9.386;2023-12-04T00:51:48;-3276.50;65.00
44851;DHT22;30583;48.714;9.386;2023-12-04T00:54:14;-3276.10;65.60
44851;DHT22;30583;48.714;9.386;2023-12-04T00:56:39;-3276.30;65.20
44851;DHT22;30583;48.714;9.386;2023-12-04T00:59:06;-3276.20;65.10
44851;DHT22;30583;48.714;9.386;2023-12-04T01:01:33;-3276.30;65.10
44851;DHT22;30583;48.714;9.386;2023-12-04T01:03:59;-3276.00;65.10
44851;DHT22;30583;48.714;9.386;2023-12-04T01:06:25;-3276.20;65.60
44851;DHT22;30583;48.714;9.386;2023-12-04T01:08:52;-3276.30;65.10
44851;DHT22;30583;48.714;9.386;2023-12-04T01:11:18;-3276.40;65.00
44851;DHT22;30583;48.714;9.386;2023-12-04T01:13:45;-3276.20;65.30
44851;DHT22;30583;48.714;9.386;2023-12-04T01:16:10;-3276.20;65.70
44851;DHT22;30583;48.714;9.386;2023-12-04T01:18:36;-3276.10;65.40
44851;DHT22;30583;48.714;9.386;2023-12-04T01:21:02;-3275.80;66.00
44851;DHT22;30583;48.714;9.386;2023-12-04T01:23:27;-3276.00;66.00
44851;DHT22;30583;48.714;9.386;2023-12-04T01:25:53;-3276.10;65.90
44851;DHT22;30583;48.714;9.386;2023-12-04T01:28:19;-3276.10;65.60
44851;DHT22;30583;48.714;9.386;2023-12-04T01:30:44;-3276.00;65.90
44851;DHT22;30583;48.714;9.386;2023-12-04T01:33:10;-3276.10;65.50
44851;DHT22;30583;48.714;9.386;2023-12-04T01:35:36;-3276.30;65.20
44851;DHT22;30583;48.714;9.386;2023-12-04T01:38:01;-3276.40;64.80
44851;DHT22;30583;48.714;9.386;2023-12-04T01:40:27;-3275.90;65.10
44851;DHT22;30583;48.714;9.386;2023-12-04T01:42:52;-3275.90;66.20
44851;DHT22;30583;48.714;9.386;2023-12-04T01:45:18;-3276.00;66.20
44851;DHT22;30583;48.714;9.386;2023-12-04T01:47:44;-3276.20;65.10
44851;DHT22;30583;48.714;9.386;2023-12-04T01:50:12;-3276.10;65.10
44851;DHT22;30583;48.714;9.386;2023-12-04T01:52:38;-3276.20;65.30
44851;DHT22;30583;48.714;9.386;2023-12-04T01:55:06;-3276.10;65.40
44851;DHT22;30583;48.714;9.386;2023-12-04T01:57:33;-3276.20;65.20
44851;DHT22;30583;48.714;9.386;2023-12-04T01:59:59;-3276.30;64.80
44851;DHT22;30583;48.714;9.386;2023-12-04T02:02:25;-3276.30;64.80
44851;DHT22;30583;48.714;9.386;2023-12-04T02:04:50;-3276.30;64.50
44851;DHT22;30583;48.714;9.386;2023-12-04T02:07:16;-3275.90;65.10
44851;DHT22;30583;48.714;9.386;2023-12-04T02:09:42;-3276.20;65.30
44851;DHT22;30583;48.714;9.386;2023-12-04T02:12:08;-3276.10;63.90
44851;DHT22;30583;48.714;9.386;2023-12-04T02:14:34;-3275.70;65.90
44851;DHT22;30583;48.714;9.386;2023-12-04T02:17:01;-3275.30;66.90
44851;DHT22;30583;48.714;9.386;2023-12-04T02:19:27;-3275.60;66.90
44851;DHT22;30583;48.714;9.386;2023-12-04T02:21:53;-3275.90;66.30
44851;DHT22;30583;48.714;9.386;2023-12-04T02:24:18;-3276.00;65.20
44851;DHT22;30583;48.714;9.386;2023-12-04T02:26:47;-3275.70;65.60
44851;DHT22;30583;48.714;9.386;2023-12-04T02:29:21;-3275.30;67.00
44851;DHT22;30583;48.714;9.386;2023-12-04T02:31:50;-3275.00;68.40
44851;DHT22;30583;48.714;9.386;2023-12-04T02:34:17;-3274.80;68.50
44851;DHT22;30583;48.714;9.386;2023-12-04T02:36:44;-3274.70;69.20
44851;DHT22;30583;48.714;9.386;2023-12-04T02:39:10;-3274.80;68.60
44851;DHT22;30583;48.714;9.386;2023-12-04T02:41:36;-3274.50;70.20
44851;DHT22;30583;48.714;9.386;2023-12-04T02:44:02;-3274.00;71.10
44851;DHT22;30583;48.714;9.386;2023-12-04T02:46:27;-3273.70;71.80
44851;DHT22;30583;48.714;9.386;2023-12-04T02:48:53;-3274.00;71.90
44851;DHT22;30583;48.714;9.386;2023-12-04T02:51:18;-3274.70;70.80
44851;DHT22;30583;48.714;9.386;2023-12-04T02:53:44;-3275.50;68.00
44851;DHT22;30583;48.714;9.386;2023-12-04T02:56:10;-3275.60;66.60
44851;DHT22;30583;48.714;9.386;2023-12-04T02:58:36;-3275.80;65.70
44851;DHT22;30583;48.714;9.386;2023-12-04T03:01:01;-3275.80;65.20
44851;DHT22;30583;48.714;9.386;2023-12-04T03:03:27;-3275.70;65.50
44851;DHT22;30583;48.714;9.386;2023-12-04T03:05:52;-3275.80;65.30
44851;DHT22;30583;48.714;9.386;2023-12-04T03:08:18;-3276.00;65.00
44851;DHT22;30583;48.714;9.386;2023-12-04T03:10:43;-3276.10;64.70
44851;DHT22;30583;48.714;9.386;2023-12-04T03:13:09;-3276.00;64.50
44851;DHT22;30583;48.714;9.386;2023-12-04T03:15:34;-3275.10;65.70
44851;DHT22;30583;48.714;9.386;2023-12-04T03:18:00;-3274.60;68.40
44851;DHT22;30583;48.714;9.386;2023-12-04T03:20:26;-3274.80;67.60
44851;DHT22;30583;48.714;9.386;2023-12-04T03:22:52;-3274.90;68.10
44851;DHT22;30583;48.714;9.386;2023-12-04T03:25:17;-3275.20;67.90
44851;DHT22;30583;48.714;9.386;2023-12-04T03:27:43;-3275.40;66.70
44851;DHT22;30583;48.714;9.386;2023-12-04T03:30:09;-3275.40;66.50
44851;DHT22;30583;48.714;9.386;2023-12-04T03:32:34;-3275.40;67.00
44851;DHT22;30583;48.714;9.386;2023-12-04T03:35:00;-3275.70;65.80
44851;DHT22;30583;48.714;9.386;2023-12-04T03:37:26;-3275.80;65.40
44851;DHT22;30583;48.714;9.386;2023-12-04T03:39:52;-3275.80;65.00
44851;DHT22;30583;48.714;9.386;2023-12-04T03:42:17;-3275.50;65.90
44851;DHT22;30583;48.714;9.386;2023-12-04T03:44:43;-3275.70;65.40
44851;DHT22;30583;48.714;9.386;2023-12-04T03:47:08;-3275.90;65.00
44851;DHT22;30583;48.714;9.386;2023-12-04T03:49:34;-3275.90;65.00
44851;DHT22;30583;48.714;9.386;2023-12-04T03:52:00;-3275.60;65.50
44851;DHT22;30583;48.714;9.386;2023-12-04T03:54:25;-3275.70;65.60
44851;DHT22;30583;48.714;9.386;2023-12-04T03:56:51;-3275.90;65.20
44851;DHT22;30583;48.714;9.386;2023-12-04T03:59:16;-3276.00;64.90
44851;DHT22;30583;48.714;9.386;2023-12-04T04:01:42;-3276.10;64.70
44851;DHT22;30583;48.714;9.386;2023-12-04T04:04:07;-3275.90;64.70
44851;DHT22;30583;48.714;9.386;2023-12-04T04:06:33;-3275.90;64.90
44851;DHT22;30583;48.714;9.386;2023-12-04T04:08:58;-3275.90;65.60
44851;DHT22;30583;48.714;9.386;2023-12-04T04:11:24;-3275.90;65.60
44851;DHT22;30583;48.714;9.386;2023-12-04T04:13:49;-3276.00;65.60
44851;DHT22;30583;48.714;9.386;2023-12-04T04:16:15;-3276.20;64.90
44851;DHT22;30583;48.714;9.386;2023-12-04T04:18:42;-3276.20;64.80
44851;DHT22;30583;48.714;9.386;2023-12-04T04:21:08;-3276.20;64.80
44851;DHT22;30583;48.714;9.386;2023-12-04T04:23:34;-3275.90;65.60
44851;DHT22;30583;48.714;9.386;2023-12-04T04:25:59;-3276.00;65.80
44851;DHT22;30583;48.714;9.386;2023-12-04T04:28:25;-3276.30;65.70
44851;DHT22;30583;48.714;9.386;2023-12-04T04:30:50;-3276.20;65.70
44851;DHT22;30583;48.714;9.386;2023-12-04T04:33:16;-3276.10;65.00
44851;DHT22;30583;48.714;9.386;2023-12-04T04:35:42;-3275.90;65.40
44851;DHT22;30583;48.714;9.386;2023-12-04T04:38:09;-3276.00;65.00
44851;DHT22;30583;48.714;9.386;2023-12-04T04:40:34;-3276.10;64.80
44851;DHT22;30583;48.714;9.386;2023-12-04T04:43:00;-3276.00;65.00
44851;DHT22;30583;48.714;9.386;2023-12-04T04:45:25;-3275.90;65.30
44851;DHT22;30583;48.714;9.386;2023-12-04T04:47:51;-3276.00;65.30
44851;DHT22;30583;48.714;9.386;2023-12-04T04:50:17;-3275.90;65.40
44851;DHT22;30583;48.714;9.386;2023-12-04T04:52:42;-3275.70;64.70
44851;DHT22;30583;48.714;9.386;2023-12-04T04:55:08;-3275.40;66.80
44851;DHT22;30583;48.714;9.386;2023-12-04T04:57:34;-3275.80;65.90
44851;DHT22;30583;48.714;9.386;2023-12-04T04:59:59;-3275.80;66.00
44851;DHT22;30583;48.714;9.386;2023-12-04T05:02:25;-3275.80;65.80
44851;DHT22;30583;48.714;9.386;2023-12-04T05:04:50;-3276.00;65.50
44851;DHT22;30583;48.714;9.386;2023-12-04T05:07:16;-3275.30;65.30
44851;DHT22;30583;48.714;9.386;2023-12-04T05:09:42;-3275.20;67.00
44851;DHT22;30583;48.714;9.386;2023-12-04T05:12:07;-3275.60;66.20
44851;DHT22;30583;48.714;9.386;2023-12-04T05:14:33;-3275.10;67.00
44851;DHT22;30583;48.714;9.386;2023-12-04T05:16:59;-3275.80;65.80
44851;DHT22;30583;48.714;9.386;2023-12-04T05:19:24;-3275.90;64.80
44851;DHT22;30583;48.714;9.386;2023-12-04T05:21:50;-3276.00;65.10
44851;DHT22;30583;48.714;9.386;2023-12-04T05:24:15;-3275.60;65.20
44851;DHT22;30583;48.714;9.386;2023-12-04T05:26:41;-3275.80;65.60
44851;DHT22;30583;48.714;9.386;2023-12-04T05:29:06;-3276.10;64.40
44851;DHT22;30583;48.714;9.386;2023-12-04T05:31:32;-3275.60;65.30
44851;DHT22;30583;48.714;9.386;2023-12-04T05:33:57;-3275.50;65.70
44851;DHT22;30583;48.714;9.386;2023-12-04T05:36:23;-3275.90;65.30
44851;DHT22;30583;48.714;9.386;2023-12-04T05:38:48;-3275.70;65.20
44851;DHT22;30583;48.714;9.386;2023-12-04T05:41:14;-3276.20;64.40
44851;DHT22;30583;48.714;9.386;2023-12-04T05:43:40;-3275.90;65.40
44851;DHT22;30583;48.714;9.386;2023-12-04T05:46:05;-3275.60;65.80
44851;DHT22;30583;48.714;9.386;2023-12-04T05:48:31;-3275.60;65.50
44851;DHT22;30583;48.714;9.386;2023-12-04T05:50:56;-3275.20;66.50
44851;DHT22;30583;48.714;9.386;2023-12-04T05:53:22;-3275.20;66.90
44851;DHT22;30583;48.714;9.386;2023-12-04T05:55:47;-3275.30;66.90
44851;DHT22;30583;48.714;9.386;2023-12-04T05:58:13;-3275.30;66.70
44851;DHT22;30583;48.714;9.386;2023-12-04T06:00:38;-3275.10;67.50
44851;DHT22;30583;48.714;9.386;2023-12-04T06:03:04;-3274.60;68.50
44851;DHT22;30583;48.714;9.386;2023-12-04T06:05:29;-3275.10;70.70
44851;DHT22;30583;48.714;9.386;2023-12-04T06:07:55;-3275.50;69.20
44851;DHT22;30583;48.714;9.386;2023-12-04T06:10:21;-3275.40;68.00
44851;DHT22;30583;48.714;9.386;2023-12-04T06:12:46;-3275.30;67.80
44851;DHT22;30583;48.714;9.386;2023-12-04T06:15:12;-3275.40;68.20
44851;DHT22;30583;48.714;9.386;2023-12-04T06:17:37;-3275.00;67.50
44851;DHT22;30583;48.714;9.386;2023-12-04T06:20:03;-3275.90;68.00
44851;DHT22;30583;48.714;9.386;2023-12-04T06:22:29;-3276.20;65.30
44851;DHT22;30583;48.714;9.386;2023-12-04T06:24:55;-3276.30;64.90
44851;DHT22;30583;48.714;9.386;2023-12-04T06:27:21;-3276.00;64.10
44851;DHT22;30583;48.714;9.386;2023-12-04T06:29:48;-3275.40;65.80
44851;DHT22;30583;48.714;9.386;2023-12-04T06:32:14;-3275.20;66.30
44851;DHT22;30583;48.714;9.386;2023-12-04T06:34:40;-3275.20;67.70
44851;DHT22;30583;48.714;9.386;2023-12-04T06:37:10;-3275.60;67.00
44851;DHT22;30583;48.714;9.386;2023-12-04T06:39:37;-3275.50;65.90
44851;DHT22;30583;48.714;9.386;2023-12-04T06:42:05;-3275.50;67.00
44851;DHT22;30583;48.714;9.386;2023-12-04T06:44:31;-3276.30;66.10
44851;DHT22;30583;48.714;9.386;2023-12-04T06:47:00;-3276.50;64.90
44851;DHT22;30583;48.714;9.386;2023-12-04T06:49:29;-3276.70;64.30
44851;DHT22;30583;48.714;9.386;2023-12-04T06:51:55;-3276.50;64.50
44851;DHT22;30583;48.714;9.386;2023-12-04T06:54:20;-3276.10;65.20
44851;DHT22;30583;48.714;9.386;2023-12-04T06:56:46;-3276.20;65.20
44851;DHT22;30583;48.714;9.386;2023-12-04T06:59:11;-3276.50;65.00
44851;DHT22;30583;48.714;9.386;2023-12-04T07:01:37;-3276.40;64.10
44851;DHT22;30583;48.714;9.386;2023-12-04T07:04:03;-3276.20;64.40
44851;DHT22;30583;48.714;9.386;2023-12-04T07:06:35;5.20;90.80
44851;DHT22;30583;48.714;9.386;2023-12-04T07:09:01;13.00;61.90
44851;DHT22;30583;48.714;9.386;2023-12-04T07:11:26;13.80;51.60
44851;DHT22;30583;48.714;9.386;2023-12-04T07:13:52;12.90;45.20
44851;DHT22;30583;48.714;9.386;2023-12-04T07:16:17;6.00;41.30
44851;DHT22;30583;48.714;9.386;2023-12-04T07:18:43;2.20;51.60
44851;DHT22;30583;48.714;9.386;2023-12-04T07:21:09;0.70;55.50
44851;DHT22;30583;48.714;9.386;2023-12-04T07:23:35;-3276.70;59.80
44851;DHT22;30583;48.714;9.386;2023-12-04T07:26:01;-3276.60;60.70
44851;DHT22;30583;48.714;9.386;2023-12-04T07:28:26;-3276.50;61.00
44851;DHT22;30583;48.714;9.386;2023-12-04T07:30:54;-3276.10;62.40
44851;DHT22;30583;48.714;9.386;2023-12-04T07:33:19;-3276.30;62.90
44851;DHT22;30583;48.714;9.386;2023-12-04T07:35:45;0.20;61.20
44851;DHT22;30583;48.714;9.386;2023-12-04T07:38:10;0.00;60.30
44851;DHT22;30583;48.714;9.386;2023-12-04T07:40:36;-3276.40;61.80
44851;DHT22;30583;48.714;9.386;2023-12-04T07:43:02;-3275.90;63.40
44851;DHT22;30583;48.714;9.386;2023-12-04T07:45:27;-3276.50;63.00
44851;DHT22;30583;48.714;9.386;2023-12-04T07:47:53;0.00;62.20
44851;DHT22;30583;48.714;9.386;2023-12-04T07:50:19;-3276.30;62.90
44851;DHT22;30583;48.714;9.386;2023-12-04T07:52:44;-3276.30;63.00
44851;DHT22;30583;48.714;9.386;2023-12-04T07:55:10;-3276.20;63.40
44851;DHT22;30583;48.714;9.386;2023-12-04T07:57:35;0.00;62.70
44851;DHT22;30583;48.714;9.386;2023-12-04T08:00:01;-3276.60;62.10
44851;DHT22;30583;48.714;9.386;2023-12-04T08:02:26;-3275.10;66.10
44851;DHT22;30583;48.714;9.386;2023-12-04T08:04:53;-3275.50;66.40
44851;DHT22;30583;48.714;9.386;2023-12-04T08:07:19;-3275.30;66.40
44851;DHT22;30583;48.714;9.386;2023-12-04T08:09:44;-3275.30;66.80
44851;DHT22;30583;48.714;9.386;2023-12-04T08:12:10;-3275.70;65.50
44851;DHT22;30583;48.714;9.386;2023-12-04T08:14:35;-3275.40;66.10
44851;DHT22;30583;48.714;9.386;2023-12-04T08:17:01;-3275.20;67.60
44851;DHT22;30583;48.714;9.386;2023-12-04T08:19:26;-3275.20;66.80
44851;DHT22;30583;48.714;9.386;2023-12-04T08:21:52;-3275.30;67.20
44851;DHT22;30583;48.714;9.386;2023-12-04T08:24:18;-3275.70;66.90
44851;DHT22;30583;48.714;9.386;2023-12-04T08:26:45;-3275.90;65.10
44851;DHT22;30583;48.714;9.386;2023-12-04T08:29:11;-3275.50;65.40
44851;DHT22;30583;48.714;9.386;2023-12-04T08:31:36;-3276.00;65.40
44851;DHT22;30583;48.714;9.386;2023-12-04T08:34:02;-3276.50;63.90
44851;DHT22;30583;48.714;9.386;2023-12-04T08:36:27;-3276.10;64.50
44851;DHT22;30583;48.714;9.386;2023-12-04T08:38:53;-3276.50;64.00
44851;DHT22;30583;48.714;9.386;2023-12-04T08:41:18;-3276.50;63.50
44851;DHT22;30583;48.714;9.386;2023-12-04T08:43:44;-3276.50;63.60
44851;DHT22;30583;48.714;9.386;2023-12-04T08:46:13;-3275.80;66.10
44851;DHT22;30583;48.714;9.386;2023-12-04T08:48:43;-3276.30;65.20
44851;DHT22;30583;48.714;9.386;2023-12-04T08:51:15;0.20;65.10
44851;DHT22;30583;48.714;9.386;2023-12-04T08:53:41;-3275.70;66.70
44851;DHT22;30583;48.714;9.386;2023-12-04T08:56:06;-3275.80;66.60
44851;DHT22;30583;48.714;9.386;2023-12-04T08:58:32;-3275.80;66.80
44851;DHT22;30583;48.714;9.386;2023-12-04T09:00:58;-3275.60;66.60
44851;DHT22;30583;48.714;9.386;2023-12-04T09:03:23;-3275.60;67.50
44851;DHT22;30583;48.714;9.386;2023-12-04T09:05:49;-3275.60;67.30
44851;DHT22;30583;48.714;9.386;2023-12-04T09:08:17;-3275.70;66.90
44851;DHT22;30583;48.714;9.386;2023-12-04T09:10:44;-3276.20;65.60
44851;DHT22;30583;48.714;9.386;2023-12-04T09:13:09;-3276.00;66.10
44851;DHT22;30583;48.714;9.386;2023-12-04T09:15:35;-3275.90;67.50
44851;DHT22;30583;48.714;9.386;2023-12-04T09:18:00;-3275.80;66.10
44851;DHT22;30583;48.714;9.386;2023-12-04T09:20:26;-3275.50;67.60
44851;DHT22;30583;48.714;9.386;2023-12-04T09:22:51;-3275.80;67.40
44851;DHT22;30583;48.714;9.386;2023-12-04T09:25:17;-3276.10;66.10
44851;DHT22;30583;48.714;9.386;2023-12-04T09:27:43;-3275.50;67.40
44851;DHT22;30583;48.714;9.386;2023-12-04T09:30:09;-3275.90;66.80
44851;DHT22;30583;48.714;9.386;2023-12-04T09:32:35;-3275.80;66.40
44851;DHT22;30583;48.714;9.386;2023-12-04T09:35:00;-3276.60;65.30
44851;DHT22;30583;48.714;9.386;2023-12-04T09:37:26;-3276.60;64.80
44851;DHT22;30583;48.714;9.386;2023-12-04T09:39:51;-3276.50;64.00
44851;DHT22;30583;48.714;9.386;2023-12-04T09:42:19;-3276.00;65.90
44851;DHT22;30583;48.714;9.386;2023-12-04T09:44:47;-3276.30;66.40
44851;DHT22;30583;48.714;9.386;2023-12-04T09:47:16;0.00;64.90
44851;DHT22;30583;48.714;9.386;2023-12-04T09:49:43;-3276.60;65.60
44851;DHT22;30583;48.714;9.386;2023-12-04T09:52:10;0.00;65.00
44851;DHT22;30583;48.714;9.386;2023-12-04T09:54:36;-3276.60;64.60
44851;DHT22;30583;48.714;9.386;2023-12-04T09:57:03;-3276.40;65.50
44851;DHT22;30583;48.714;9.386;2023-12-04T09:59:30;0.00;65.60
44851;DHT22;30583;48.714;9.386;2023-12-04T10:01:57;0.20;64.30
44851;DHT22;30583;48.714;9.386;2023-12-04T10:04:24;0.20;62.90
44851;DHT22;30583;48.714;9.386;2023-12-04T10:06:51;-3276.30;65.70
44851;DHT22;30583;48.714;9.386;2023-12-04T10:09:18;0.20;65.10
44851;DHT22;30583;48.714;9.386;2023-12-04T10:11:45;0.20;63.50
44851;DHT22;30583;48.714;9.386;2023-12-04T10:14:18;-3276.70;64.50
44851;DHT22;30583;48.714;9.386;2023-12-04T10:16:45;0.10;64.90
44851;DHT22;30583;48.714;9.386;2023-12-04T10:19:21;0.30;64.00
44851;DHT22;30583;48.714;9.386;2023-12-04T10:21:50;0.90;69.40
44851;DHT22;30583;48.714;9.386;2023-12-04T10:24:38;1.30;62.20
44851;DHT22;30583;48.714;9.386;2023-12-04T10:27:10;0.80;61.60
44851;DHT22;30583;48.714;9.386;2023-12-04T10:29:48;0.40;63.90
44851;DHT22;30583;48.714;9.386;2023-12-04T10:32:18;0.70;62.50
44851;DHT22;30583;48.714;9.386;2023-12-04T10:34:47;0.20;66.20
44851;DHT22;30583;48.714;9.386;2023-12-04T10:37:13;-3276.70;66.10
44851;DHT22;30583;48.714;9.386;2023-12-04T10:39:47;0.00;64.40
44851;DHT22;30583;48.714;9.386;2023-12-04T10:42:32;0.70;63.40
44851;DHT22;30583;48.714;9.386;2023-12-04T10:44:58;0.70;63.00
44851;DHT22;30583;48.714;9.386;2023-12-04T10:47:25;0.90;62.30
44851;DHT22;30583;48.714;9.386;2023-12-04T10:49:51;1.10;62.40
44851;DHT22;30583;48.714;9.386;2023-12-04T10:52:18;1.30;62.20
44851;DHT22;30583;48.714;9.386;2023-12-04T10:54:50;1.40;61.30
44851;DHT22;30583;48.714;9.386;2023-12-04T10:57:27;1.70;61.60
44851;DHT22;30583;48.714;9.386;2023-12-04T10:59:58;1.50;61.00
44851;DHT22;30583;48.714;9.386;2023-12-04T11:02:26;1.80;61.20
44851;DHT22;30583;48.714;9.386;2023-12-04T11:04:56;1.40;61.80
44851;DHT22;30583;48.714;9.386;2023-12-04T11:07:24;1.10;63.20
44851;DHT22;30583;48.714;9.386;2023-12-04T11:09:50;1.40;63.30
44851;DHT22;30583;48.714;9.386;2023-12-04T11:12:18;1.50;62.90
44851;DHT22;30583;48.714;9.386;2023-12-04T11:14:53;1.10;62.80
44851;DHT22;30583;48.714;9.386;2023-12-04T11:17:21;1.50;65.00
44851;DHT22;30583;48.714;9.386;2023-12-04T11:19:59;1.70;65.50
44851;DHT22;30583;48.714;9.386;2023-12-04T11:22:27;1.40;64.70
44851;DHT22;30583;48.714;9.386;2023-12-04T11:24:54;1.50;67.60
44851;DHT22;30583;48.714;9.386;2023-12-04T11:27:20;1.60;65.20
44851;DHT22;30583;48.714;9.386;2023-12-04T11:29:47;1.20;65.40
44851;DHT22;30583;48.714;9.386;2023-12-04T11:32:16;1.10;67.30
44851;DHT22;30583;48.714;9.386;2023-12-04T11:34:54;1.10;66.00
44851;DHT22;30583;48.714;9.386;2023-12-04T11:37:21;1.20;65.60
44851;DHT22;30583;48.714;9.386;2023-12-04T11:39:50;1.20;66.40
44851;DHT22;30583;48.714;9.386;2023-12-04T11:42:23;1.90;62.30
44851;DHT22;30583;48.714;9.386;2023-12-04T11:44:49;2.40;63.80
44851;DHT22;30583;48.714;9.386;2023-12-04T11:47:21;3.10;62.40
44851;DHT22;30583;48.714;9.386;2023-12-04T11:49:46;3.20;64.70
44851;DHT22;30583;48.714;9.386;2023-12-04T11:52:12;3.60;60.80
44851;DHT22;30583;48.714;9.386;2023-12-04T11:54:57;2.70;61.60
44851;DHT22;30583;48.714;9.386;2023-12-04T11:57:40;2.50;61.40
44851;DHT22;30583;48.714;9.386;2023-12-04T12:02:41;2.10;62.90
44851;DHT22;30583;48.714;9.386;2023-12-04T12:05:06;2.20;62.10
44851;DHT22;30583;48.714;9.386;2023-12-04T12:07:35;2.50;65.70
44851;DHT22;30583;48.714;9.386;2023-12-04T12:10:01;3.10;70.80
44851;DHT22;30583;48.714;9.386;2023-12-04T12:12:28;3.60;69.10
44851;DHT22;30583;48.714;9.386;2023-12-04T12:14:53;1.90;63.20
44851;DHT22;30583;48.714;9.386;2023-12-04T12:17:19;1.30;64.40
44851;DHT22;30583;48.714;9.386;2023-12-04T12:19:45;0.30;66.70
44851;DHT22;30583;48.714;9.386;2023-12-04T12:22:11;0.30;67.70
44851;DHT22;30583;48.714;9.386;2023-12-04T12:24:37;0.40;68.00
44851;DHT22;30583;48.714;9.386;2023-12-04T12:27:02;0.10;68.40
44851;DHT22;30583;48.714;9.386;2023-12-04T12:29:29;0.10;68.90
44851;DHT22;30583;48.714;9.386;2023-12-04T12:31:55;0.40;68.40
44851;DHT22;30583;48.714;9.386;2023-12-04T12:34:20;0.60;67.30
44851;DHT22;30583;48.714;9.386;2023-12-04T12:36:46;0.50;67.70
44851;DHT22;30583;48.714;9.386;2023-12-04T12:39:13;0.30;68.20
44851;DHT22;30583;48.714;9.386;2023-12-04T12:41:47;0.50;68.00
44851;DHT22;30583;48.714;9.386;2023-12-04T12:44:13;0.60;68.10
44851;DHT22;30583;48.714;9.386;2023-12-04T12:46:40;0.10;69.30
44851;DHT22;30583;48.714;9.386;2023-12-04T12:49:06;0.20;69.80
44851;DHT22;30583;48.714;9.386;2023-12-04T12:51:31;0.20;69.00
44851;DHT22;30583;48.714;9.386;2023-12-04T12:53:57;0.10;69.70
44851;DHT22;30583;48.714;9.386;2023-12-04T12:56:25;0.00;70.00
44851;DHT22;30583;48.714;9.386;2023-12-04T12:58:50;0.20;72.40
44851;DHT22;30583;48.714;9.386;2023-12-04T13:01:17;4.30;77.40
44851;DHT22;30583;48.714;9.386;2023-12-04T13:03:45;4.20;60.50
44851;DHT22;30583;48.714;9.386;2023-12-04T13:06:12;1.70;65.00
44851;DHT22;30583;48.714;9.386;2023-12-04T13:08:38;0.90;66.70
44851;DHT22;30583;48.714;9.386;2023-12-04T13:11:04;0.80;67.80
44851;DHT22;30583;48.714;9.386;2023-12-04T13:13:30;1.20;67.70
44851;DHT22;30583;48.714;9.386;2023-12-04T13:15:57;1.50;65.50
44851;DHT22;30583;48.714;9.386;2023-12-04T13:18:22;1.60;65.70
44851;DHT22;30583;48.714;9.386;2023-12-04T13:20:48;1.40;65.90
44851;DHT22;30583;48.714;9.386;2023-12-04T13:23:14;0.70;68.00
44851;DHT22;30583;48.714;9.386;2023-12-04T13:25:39;0.70;68.90
44851;DHT22;30583;48.714;9.386;2023-12-04T13:28:05;0.70;69.10
44851;DHT22;30583;48.714;9.386;2023-12-04T13:30:31;1.20;68.80
44851;DHT22;30583;48.714;9.386;2023-12-04T13:32:59;1.00;67.80
44851;DHT22;30583;48.714;9.386;2023-12-04T13:35:25;10.30;70.00
44851;DHT22;30583;48.714;9.386;2023-12-04T13:37:50;12.00;53.50
44851;DHT22;30583;48.714;9.386;2023-12-04T13:40:21;10.00;58.40
44851;DHT22;30583;48.714;9.386;2023-12-04T13:42:46;12.80;49.60
44851;DHT22;30583;48.714;9.386;2023-12-04T13:45:30;14.70;44.00
44851;DHT22;30583;48.714;9.386;2023-12-04T13:47:57;15.50;40.00
44851;DHT22;30583;48.714;9.386;2023-12-04T13:50:23;13.10;39.30
44851;DHT22;30583;48.714;9.386;2023-12-04T13:52:48;12.90;41.50
44851;DHT22;30583;48.714;9.386;2023-12-04T13:55:20;11.50;45.10
44851;DHT22;30583;48.714;9.386;2023-12-04T13:57:56;15.00;39.60
44851;DHT22;30583;48.714;9.386;2023-12-04T14:00:36;15.20;38.70
44851;DHT22;30583;48.714;9.386;2023-12-04T14:03:01;7.50;42.90
44851;DHT22;30583;48.714;9.386;2023-12-04T14:05:31;2.90;57.50
44851;DHT22;30583;48.714;9.386;2023-12-04T14:07:57;2.10;62.00
44851;DHT22;30583;48.714;9.386;2023-12-04T14:10:27;1.30;65.30
44851;DHT22;30583;48.714;9.386;2023-12-04T14:12:53;1.70;65.60
44851;DHT22;30583;48.714;9.386;2023-12-04T14:15:18;1.70;65.40
44851;DHT22;30583;48.714;9.386;2023-12-04T14:17:45;2.00;65.20
44851;DHT22;30583;48.714;9.386;2023-12-04T14:20:12;2.00;65.10
44851;DHT22;30583;48.714;9.386;2023-12-04T14:22:43;2.00;64.50
44851;DHT22;30583;48.714;9.386;2023-12-04T14:25:09;1.90;64.80
44851;DHT22;30583;48.714;9.386;2023-12-04T14:27:35;1.50;66.50
44851;DHT22;30583;48.714;9.386;2023-12-04T14:30:03;2.10;65.60
44851;DHT22;30583;48.714;9.386;2023-12-04T14:32:29;2.20;64.80
44851;DHT22;30583;48.714;9.386;2023-12-04T14:34:55;2.30;65.10
44851;DHT22;30583;48.714;9.386;2023-12-04T14:37:20;1.90;65.60
44851;DHT22;30583;48.714;9.386;2023-12-04T14:39:46;1.10;68.80
44851;DHT22;30583;48.714;9.386;2023-12-04T14:42:12;1.10;69.80
44851;DHT22;30583;48.714;9.386;2023-12-04T14:44:37;1.40;69.10
44851;DHT22;30583;48.714;9.386;2023-12-04T14:47:04;1.30;69.60
44851;DHT22;30583;48.714;9.386;2023-12-04T14:49:30;1.20;69.90
44851;DHT22;30583;48.714;9.386;2023-12-04T14:51:57;1.40;69.80
44851;DHT22;30583;48.714;9.386;2023-12-04T14:54:22;1.30;69.60
44851;DHT22;30583;48.714;9.386;2023-12-04T14:57:02;1.30;70.10
44851;DHT22;30583;48.714;9.386;2023-12-04T14:59:34;1.10;71.20
44851;DHT22;30583;48.714;9.386;2023-12-04T15:02:18;1.30;70.90
44851;DHT22;30583;48.714;9.386;2023-12-04T15:04:44;1.30;70.30
44851;DHT22;30583;48.714;9.386;2023-12-04T15:07:38;1.00;71.30